Aktualne dane pomiarowe

Uwaga, wersja testowa! Automatyczne pobieranie danych za pomocą narzędzi lub skryptów to umożliwiających jest zabronione.

Dane meteo z obszaru Polski uzyskane na podstawie depesz SYNOP pobieranych co godzinę z NWS. Najedź myszką na symbol przedstawiony w tabeli, aby uzyskać informacje co do jego znaczenia. Prosimy pamiętać, że to testowa wersja strony, która jeszcze nie jest ukończona. Stworzono również jest krótki FAQ dotyczący korzystania z tej podstrony Anomalie temperatury w chwili obecnej odniesione są do okresu referencyjnego 1951-2016. Okres ten będzie później zmieniony na 1981-2010. Kliknij ikonę aby pobrać plik CSV. Kliknij ikonę aby wygenerować mapę synoptyczną dla danego terminu.

Wybierz Datę:    

        

Zielona Góra (12400)

Dane terminowe dla wybranej stacji. Kliknij datę, aby otrzymać dane z tego terminu dla wszystkich stacji.

TemperaturaZachmurzenieWiatrCiśnienieOpadyPogoda
 Data t td wb tx tn tg rh  Nt Nl Cl Cm Ch ws wd g1 g2 wx mslp ppp ch 24h 12h t ww ww w1 w2  
2019-06-30 23:00:00 29.2 8.8 17.3--- 2850.0wx-5wx101051011.0 989.2 0.7---------
2019-06-30 22:00:00 30.2 8.0 17.4--- 2550.0wx-3wx--31010.2 988.5 0.1---------
2019-06-30 21:00:00 28.6 8.3 16.9--- 2850.0wx-wx2wx--21010.4 988.6 0.3---------
2019-06-30 20:00:00 30.1 7.9 17.3--- 2550.0wx-wx2wx---1010.2 988.5 0.0---------
2019-06-30 19:00:00 32.2 7.1 17.7--- 2150.0wx-wxwx2wx--21009.9 988.4 -0.3---------
2019-06-30 18:00:00 33.9 9.2 19.2 36.0 23.7- 2250.0wx-wx3wx-1131009.7 988.3 -0.8- 0.012------
2019-06-30 17:00:00 34.9 7.8 18.9--- 1950.0wx-3wx-831009.8 988.5 -1.0---------
2019-06-30 16:00:00 35.5 5.8 18.3--- 1640.0wx-4wx-1141010.0 988.7 -1.6---------
2019-06-30 15:00:00 35.6 5.9 18.4--- 1640.0wx-4wx-1141010.4 989.1 -1.7---------
2019-06-30 14:00:00 35.7 5.1 18.1--- 1540.0wx-wx5wx-951010.8 989.5 -2.2---------
2019-06-30 13:00:00 34.8 7.8 18.9--- 1930.0wx-4wx-1141011.7 990.3 -2.1---------
2019-06-30 12:00:00 34.1 7.2 18.4--- 1935.0wx-4wx-1041012.2 990.8 -2.1- 0.06------
2019-06-30 11:00:00 33.1 8.5 18.6--- 2235.0wx-4wx-941013.2 991.7 -1.6---------
2019-06-30 10:00:00 31.7 9.8 18.7--- 2635.0wx-4wx-941014.0 992.4 -1.3---------
2019-06-30 09:00:00 30.6 10.0 18.4--- 2840.0wx-3wx8--1014.6 992.9 -1.0---------
2019-06-30 08:00:00 28.5 10.7 17.9--- 3340.0wx-4wx--41015.2 993.3 -0.6---------
2019-06-30 07:00:00 26.1 11.4 17.3--- 4040.0wx-3wx--31015.8 993.7 -0.3---------
2019-06-30 06:00:00 23.7 10.4 15.8 29.2 19.2 17 4340.0wx-3wx--31016.2 993.9 -0.1- 0.012----- 15.4
2019-06-30 05:00:00 21.6 10.1 14.8--- 4850.0wx-2wx--21016.3 993.9 -0.5---------
2019-06-30 04:00:00 20.4 9.3 13.9--- 4950.0wx-2wx---1016.5 994.0 -0.8---------
2019-06-30 03:00:00 19.6 9.8 13.8--- 5340.0wx-2wx--21016.6 994.0 -0.9---------
2019-06-30 02:00:00 20.3 9.5 13.9--- 5040.0wx-2wx--21016.9 994.4 -0.8---------
2019-06-30 01:00:00 21.4 9.0 14.2--- 4540.0wx-2wx--21017.3 994.8 -0.7---------
2019-06-30 00:00:00 22.7 8.0 14.3--- 3950.0wx-2wx--21017.3 994.9 -0.8- 0.06------
2019-06-29 23:00:00 23.3 7.4 14.4--- 3650.0wx-2wx---1017.5 995.2 -0.5---------
2019-06-29 22:00:00 23.7 7.7 14.7--- 3650.0wx-1wx---1017.8 995.5 0.0---------
2019-06-29 21:00:00 24.4 7.9 15.0--- 3550.0wx-1wx--11018.0 995.7 0.1---------
2019-06-29 20:00:00 25.8 7.8 15.6--- 3250.0wx-wx1wx--11017.8 995.7 -0.1---------
2019-06-29 19:00:00 27.1 9.0 16.6--- 3250.0wx-wx1wx--11017.5 995.5 -0.7---------
2019-06-29 18:00:00 29.1 8.7 17.2 30.2 20.1- 2850.0wx-wx2wx--21017.5 995.6 -0.9- 0.012------
2019-06-29 17:00:00 30.0 9.0 17.7--- 2750.0wx-wx2wx---1017.6 995.8 -1.2---------
2019-06-29 16:00:00 29.9 9.4 17.8--- 2840.0wx-wx3wx---1018.1 996.2 -1.4---------
2019-06-29 15:00:00 29.8 9.3 17.8--- 2840.0wx-wx2wx--21018.4 996.5 -1.5---------
2019-06-29 14:00:00 29.2 8.8 17.3--- 2840.0wx-wx3wx---1018.9 997.0 -1.7---------
2019-06-29 13:00:00 28.4 9.1 17.1--- 3040.0wx-wx2wx---1019.6 997.6 -1.6---------
2019-06-29 12:00:00 27.4 10.1 17.2--- 3440.0wx-wx2wx8821020.1 998.0 -1.5- 0.06------
2019-06-29 11:00:00 25.7 10.3 16.6--- 3840.0wx-wx3wx--31020.9 998.7 -0.9---------
2019-06-29 10:00:00 24.5 9.6 15.8--- 3945.0wx-wx3wx--31021.5 999.2 -0.7---------
2019-06-29 09:00:00 23.2 10.9 15.8--- 4635.0wxwxwxwx3wx--31021.9 999.5 -0.4---------
2019-06-29 08:00:00 22.0 10.5 15.1--- 4840.0wxwxwxwx3wx--31022.1 999.6 -0.3---------
2019-06-29 07:00:00 21.2 10.7 14.9--- 5145.0wx-wx2wx--21022.5 999.9 -0.1---------
2019-06-29 06:00:00 20.2 10.3 14.3 23.1 15.0 13 5345.0wx-wx1wx--11022.6 999.9 -0.2- 0.012----- 10.5
2019-06-29 05:00:00 18.5 10.1 13.4--- 5845.0wx-wx1wx--11022.7 999.9 -0.3---------
2019-06-29 04:00:00 16.4 10.3 12.6--- 6750.0wx-wx1wx--11023.01000.0 -0.4---------
2019-06-29 03:00:00 15.2 9.5 11.7--- 6950.0wx-wx1wx--11023.21000.1 -0.1---------
2019-06-29 02:00:00 15.2 9.8 11.8--- 7050.0wx-1wx--11023.31000.2 0.1---------
2019-06-29 01:00:00 15.9 10.0 12.2--- 6850.0wx-1wx--11023.41000.4 0.3---------
2019-06-29 00:00:00 16.8 10.2 12.7--- 6550.0wx-1wx--11023.11000.2 0.3- 0.06------
1.3 ms

 

Print Friendly, PDF & Email